Timeline UpdatesTrip UpdatesNews PostsPvt PostsTravel TipsAdmin PostsConv PostsFollowed PostsChat RequestsBlog PostsPNR Posts

Disclaimer
Search
 
 
Sat Aug 2, 2014 07:59:42 ISTHomeTrainsΣChainsAtlasPNRForumGalleryNewsFAQTripsMembersLoginFeedback
No Recent News for this Train
Other Trains in the News **new
Latest...
Tr.No.17406 Adilabad -Tirupati Express is cancelled o­n 27.04.2014.
Sat Apr 26, 2014 (03:22PM)
⇐ Return Journey: Train# 17405

17406/Krishna Express

Jul 04 2013 (3:43PM)
Change Departure Station:
Change Arrival Station:
Post a Train Travel TipPost a Train Travel Tip **new
Post a Comment/Question/Picture/VideoPost a Comment/Question/Picture/Video
Inaugural Run
Wed Oct 02, 1974
Pantry/Catering
✕ NO Pantry Car
✓ Catering Avbl
Loco/Rake Reversals
MUE/Mudkhed Junction (4); SC/Secunderabad Junction (10);
RSA - Rake Sharing
17405/17406/17409/17410 has RSA.
Rake/Coach Composition
Loco-SLR-GS-D6-D5-D4-D3-D2-D1-S2-S1-C1-B1-GS-GS-GS-GS-GS-SLR
Loco
ADB - SC: KZJ WDG-3A. SC - TPTY: LGD WAP4/7.
News    PNR    Forum    Time-Table    Availability    Fare Chart    Map    Arr/Dep History    Trips    Gallery    ΣChains    X/O    Timeline    
Travel Time: 7h 53m    21 halts    Distance: 375 km    Avg Speed: 47 km/hr
Type: Mail/Express
Zone: SCR/South Central
Departs @ 13:32 (Avg 32m late)
Platform# ???
SMTWTFS
Peddavadiapudi/PVD 
Arrives @ 21:25 (Avg 13m late)
Platform# 1
SMTWTFS
Tirupati Main/TPTY 

21 halts. 57 intermediate Stations between Peddavadiapudi and Tirupati Main

Show ALL intermediate Stations  Show Old Time-Table

#CodeStation NameX/OArrivesAvgDepartsAvgHaltPFDay#KmSpeedElevZoneAddress
1ADBAdilabad (3)  -20:45+111-773.3-248mSCRAdilabad, Telangana
2KNVTKinwat (2)X  21:03+3221:04+341m11-728.122319mSCRKinwat, Maharashtra
3BHBKBodhadi Bujrug  21:44+1021:45+101m--1-713.362357mSCRKinwat, Maharashtra
4SHSKSahasrakund  22:14+1422:15+151m--1-683.267402mSCRNanded, Maharashtra
5HEMHimayatnagar  22:29+1722:30+171m--1-667.740398mSCRNanded, Maharashtra
6BOKRBhokar  23:24+423:25+61m11-631.532460mSCRBhokar, Maharashtra
7MUEMudkhed Junction (4)O↵¶00:05-200:15+910m22-610.434378mSCRMudkhed, Maharashtra
8UMRIUmri (1)X  00:49+600:50+91m12-590.965381mSCRHuzur Sahib Nanded, Maharashtra
9DABDharmabad (2)  01:17+1701:18+221m12-561.535354mSCRDegaon, Maharashtra
10BSXBasar (2)X  01:35+1701:37+202m12-551.653358mSCRDist Adilabad, Telangana
11NZBNizamabad (3)  02:10+2302:15+285m12-522.369384mSCRNizamabad, Telangana
12KMCKamareddi (3)O  03:00+3303:01+341m12-470.467528mSCRNizamabad Dist., Telangana
13AKEAkanapetO  03:24+3403:25+341m12-444.693566mSCRNizamabad Dist, Telangana
14MZLMirzapalli (1)  03:32+3503:33+351m12-433.943530mSCRMedak Dist., Telangana
15BMOBolarum (3)X  04:55+1004:56+111m12-375.227597mSCRSecunderabad, Telangana
16MJFMalkajgiri (3)X  05:19+405:20+41m22-365.18535mSCRSecunderabad, Telangana
17SCSecunderabad Junction (10)X05:45+1506:05+1920m62-361.643539mSCRSecunderabad 500003, Telangana
18MLYMoula Ali (2)X  06:13+3006:14+311m12-355.957520mSCRSecunderabad, Telangana
19CHZCharlapalli (2)  06:21+3506:22+351m22-349.276523mSCRRangareddy Dist., Telangana
20BGBhongir (3)X  06:49+3806:50+401m22-315.297455mSCRNalgonda Dist., Telangana
21RAGRaigir (2)X  06:54+1506:55+151m22-308.873415mSCRNalgonda, Telangana
22ALERAler (2)X  07:08+4407:09+471m22-293.072366mSCRNalgonda Dist., Telangana
23PBPPembarti (2)  07:17+5007:18+511m22-283.441382mSCRWarangal Dist., Telangana
24ZNJangaon (2)  07:26+4907:27+491m22-277.975380mSCRWarangal Dist., Telangana
25RGPRaghunathpalli (2)  07:36+4807:37+491m22-266.684357mSCRWarangal Dist., Telangana
26GNPGhanpur (2)  07:49+5307:50+551m22-249.843344mSCRWarangal Dist. / Enq Ph : 08711 220231, Telangana
27KZJKazipet Junction (3)X  08:18+4308:20+472m22-230.051292mSCRWarangal Dist., Telangana
28WLWarangal (3)  08:32+5708:34+582m12-219.874271mSCRWarangal., Telangana
29NKDNekonda (2)  08:58+1:0308:59+1:031m12-190.177236mSCRWarangal Dist., Telangana
30KDMKesamudram (2)X  09:11+1:0709:12+1:071m12-174.681223mSCRWarangal Dist., Telangana
31MABDMahbubabad (2)  09:23+1:1109:24+1:121m12-159.7107200mSCRWarangal Dist., Telangana
32GLAGarla (2)X  09:35-09:36-1m12-140.018156mSCRKhammam Dist., Telangana
33DKJDornakal Junction (3)  09:52+1:0409:54+1:032m22-135.392153mSCRWarangal District, Telangana
34KMTKhammam (2)X  10:09+4410:11+442m12-112.288118mSCRKhammam 507001, Telangana
35BKLBona Kalu (2)  10:30+1:0310:31+1:051m12-84.48597mSCRKhammam Dist., Telangana
36MDRMadhira (2)  10:43+1:0410:44+1:041m12-67.58461mSCRKhammam Dist., Telangana
37YPErrupalem (2)X  10:55+1:0410:56+1:041m--2-52.01857mSCRKhammam Dist., Telangana
38KIKondapalli (2)O  12:18+3212:20+322m22-27.52735mSCRKondapalli, Andhra Pradesh
39BZAVijayawada Junction (10)X  12:55+2713:15+2420m102-11.94524mSCRVijayawada 520001, Andhra Pradesh
40PVD»Peddavadiapudi (3)»  13:31+3213:32+321m--20.06520mSCRKL University to NH 5, Andhra Pradesh
41DIGDuggirala (3)X  13:41+3413:42+351m--29.73616mSCRDuggirala, Andhra Pradesh
42TELTenali Junction (5)  13:58+2914:00+322m3219.47716mSCRTel: 08644-227834, Andhra Pradesh
43TSRTsunduru (3)  14:09+3714:10+381m--230.95712mSCRTsunduru, Andhra Pradesh
44NDONidubrolu (3)  14:21+4114:22+421m--241.4699mSCRNidubrolu, Andhra Pradesh
45BPPBapatla (3)X  14:40+3914:41+411m--262.08210mSCRBapatla, Andhra Pradesh
46CLXChirala (4)  14:52+5314:53+551m--277.0598mSCRChirala, Andhra Pradesh
47VTMVetapalem (3)X  15:01+5915:02+1:011m--284.9758mSCRVetapalem, Andhra Pradesh
48CJMChinnaganjam (3)  15:12+1:0215:13+1:031m--297.3779mSCRChinna Ganjam, Andhra Pradesh
49ANBAmmanabrolu (3)X  15:24+1:0815:25+1:091m--2111.54316mSCRAmmanabrolu, Andhra Pradesh
50OGLOngole (3)  15:46+5315:48+572m32126.47012mSCROngole, Andhra Pradesh
51TNRTanguturu (3)  16:04+1:1316:05+1:131m12145.07210mSCRTanguturu, Andhra Pradesh
52SKMSingarayakonda (2)X  16:13+1:0816:14+1:091m22154.69926mSCRSingarayakonda, Andhra Pradesh
53KVZKavali (4)X  16:37+1:0216:39+1:042m22192.48221mSCRKavali, Andhra Pradesh
54BTTRBitragunta (2)X  16:51+1:0916:52+1:131m22208.84515mSCRBitragunta, Andhra Pradesh
55NLRNellore (4)  17:38+1817:40+182m32243.24821mSCRNellore, Andhra Pradesh
56VDEVedayapalem (2)XO  17:49-17:50-1m22250.42427mSCRNellore, Andhra Pradesh
57GDRGudur Junction (3)X  19:08+2919:10+292m32281.66819mSCRGudur, Andhra Pradesh
58VDDVendodu (2)X  19:27+1:0119:28+1:021m--2300.88355mSCRNellore, Andhra Pradesh
59VKIVenkatagiri (3)  19:40+1:0619:41+1:081m22317.47377mSCRNellore District, Andhra Pradesh
60KHTSri Kalahasti (2)X  20:01+5920:02+1:001m12341.84268mSCRChittoor District, Andhra Pradesh
61RURenigunta Junction (5)  20:35+1:0420:40+1:035m--2365.013113mSCRChittoor District, Andhra Pradesh
62TPTY•Tirupati Main (5)•  21:25+13-12374.9-150mSCRChittoor Distt, Andhra Pradesh
Scroll to Top
Scroll to Bottom